createdAt,value
2019-02-04T00:02:20.181Z,2.76
2019-02-04T00:04:50.363Z,2.71
2019-02-04T00:07:20.568Z,2.89
2019-02-04T00:09:50.712Z,3.01
2019-02-04T00:12:20.928Z,2.96
2019-02-04T00:14:54.257Z,2.75
2019-02-04T00:17:24.939Z,3.20
2019-02-04T00:19:55.301Z,3.24
2019-02-04T00:22:25.522Z,3.19
2019-02-04T00:24:56.193Z,3.13
2019-02-04T00:27:26.241Z,3.08
2019-02-04T00:29:56.198Z,3.26
2019-02-04T00:32:26.185Z,3.18
2019-02-04T00:34:56.109Z,2.81
2019-02-04T00:37:26.103Z,3.05
2019-02-04T00:39:56.046Z,3.14
2019-02-04T00:42:26.466Z,2.94
2019-02-04T00:44:56.417Z,2.75
2019-02-04T00:47:26.737Z,3.00
2019-02-04T00:49:56.658Z,3.04
2019-02-04T00:52:26.698Z,3.13
2019-02-04T00:54:56.615Z,3.05
2019-02-04T00:57:26.875Z,2.87
2019-02-04T00:59:56.780Z,2.87
2019-02-04T01:02:26.778Z,2.90
2019-02-04T01:04:57.119Z,3.04
2019-02-04T01:07:27.357Z,3.15
2019-02-04T01:09:57.379Z,3.06
2019-02-04T01:12:27.375Z,3.12
2019-02-04T01:14:57.610Z,3.23
2019-02-04T01:17:27.592Z,3.26
2019-02-04T01:19:57.545Z,3.02
2019-02-04T01:22:27.791Z,3.29
2019-02-04T01:24:57.675Z,3.30
2019-02-04T01:27:28.038Z,3.42
2019-02-04T01:29:58.041Z,3.44
2019-02-04T01:32:28.277Z,3.30
2019-02-04T01:34:58.205Z,3.42
2019-02-04T01:37:28.122Z,3.56
2019-02-04T01:39:58.660Z,3.37
2019-02-04T01:42:28.677Z,3.47
2019-02-04T01:44:58.582Z,3.53
2019-02-04T01:47:28.561Z,3.43
2019-02-04T01:49:58.775Z,3.37
2019-02-04T01:52:28.714Z,3.33
2019-02-04T01:54:58.893Z,3.44
2019-02-04T01:57:29.230Z,3.39
2019-02-04T01:59:59.148Z,3.38
2019-02-04T02:02:29.061Z,3.40
2019-02-04T02:04:58.949Z,3.33
2019-02-04T02:07:29.607Z,3.41
2019-02-04T02:09:59.845Z,3.48
2019-02-04T02:12:29.747Z,3.59
2019-02-04T02:15:00.201Z,3.58
2019-02-04T02:17:30.109Z,3.54
2019-02-04T02:20:00.025Z,3.48
2019-02-04T02:22:29.916Z,3.40
2019-02-04T02:24:59.830Z,3.45
2019-02-04T02:27:29.768Z,3.47
2019-02-04T02:30:00.424Z,3.46
2019-02-04T02:32:33.810Z,3.54
2019-02-04T02:35:03.929Z,3.48
2019-02-04T02:37:34.141Z,3.55
2019-02-04T02:40:06.341Z,3.46
2019-02-04T02:42:36.485Z,3.38
2019-02-04T02:45:08.316Z,3.47
2019-02-04T02:47:38.869Z,3.34
2019-02-04T02:50:10.162Z,3.36
2019-02-04T02:52:40.158Z,3.54
2019-02-04T02:55:12.132Z,3.50
2019-02-04T02:57:42.245Z,3.47
2019-02-04T03:00:16.501Z,3.47
2019-02-04T03:02:46.702Z,3.53
2019-02-04T03:05:17.799Z,3.47
2019-02-04T03:07:47.824Z,3.35
2019-02-04T03:10:27.610Z,3.44
2019-02-04T03:12:57.912Z,3.43
2019-02-04T03:15:28.012Z,3.46
2019-02-04T03:17:57.923Z,3.54
2019-02-04T03:20:28.139Z,3.49
2019-02-04T03:22:58.024Z,3.47
2019-02-04T03:25:28.123Z,3.55
2019-02-04T03:27:58.249Z,3.44
2019-02-04T03:30:34.848Z,3.44
2019-02-04T03:33:05.409Z,3.46
2019-02-04T03:35:35.371Z,3.50
2019-02-04T03:38:06.694Z,3.50
2019-02-04T03:40:36.663Z,3.48
2019-02-04T03:43:06.644Z,3.47
2019-02-04T03:45:36.552Z,3.42
2019-02-04T03:48:08.119Z,3.39
2019-02-04T03:50:38.544Z,3.47
2019-02-04T03:53:08.503Z,3.33
2019-02-04T03:55:38.451Z,3.33
2019-02-04T03:58:08.480Z,3.40
2019-02-04T04:00:38.538Z,3.28
2019-02-04T04:03:09.033Z,3.41
2019-02-04T04:05:39.303Z,3.40
2019-02-04T04:08:09.374Z,3.41
2019-02-04T04:10:39.289Z,3.36
2019-02-04T04:13:09.967Z,3.41
2019-02-04T04:15:40.073Z,3.49
2019-02-04T04:18:16.120Z,3.46
2019-02-04T04:20:42.247Z,3.38
2019-02-04T04:23:12.226Z,3.43
2019-02-04T04:25:42.180Z,3.43
2019-02-04T04:28:12.308Z,3.31
2019-02-04T04:30:42.375Z,3.36
2019-02-04T04:33:12.330Z,3.46
2019-02-04T04:35:42.236Z,3.31
2019-02-04T04:38:12.427Z,3.42
2019-02-04T04:40:42.373Z,3.29
2019-02-04T04:43:12.351Z,3.19
2019-02-04T04:45:42.281Z,2.97
2019-02-04T04:48:12.216Z,3.27
2019-02-04T04:50:43.087Z,3.30
2019-02-04T04:53:13.612Z,3.31
2019-02-04T04:55:43.784Z,3.39
2019-02-04T04:58:13.961Z,3.31
2019-02-04T05:00:44.043Z,2.88
2019-02-04T05:03:14.523Z,3.24
2019-02-04T05:05:44.402Z,3.28
2019-02-04T05:08:14.320Z,3.25
2019-02-04T05:10:44.661Z,3.25
2019-02-04T05:13:14.853Z,3.33
2019-02-04T05:15:44.727Z,3.30
2019-02-04T05:18:15.305Z,3.29
2019-02-04T05:20:45.994Z,3.33
2019-02-04T05:23:17.276Z,2.84
2019-02-04T05:25:47.472Z,3.04
2019-02-04T05:28:17.401Z,3.19
2019-02-04T05:30:47.311Z,3.26
2019-02-04T05:33:17.610Z,3.21
2019-02-04T05:35:47.592Z,3.30
2019-02-04T05:38:17.487Z,3.29
2019-02-04T05:40:47.438Z,3.36
2019-02-04T05:43:17.691Z,3.44
2019-02-04T05:45:47.881Z,3.35
2019-02-04T05:48:17.756Z,3.31
2019-02-04T05:50:47.962Z,3.31
2019-02-04T05:53:18.435Z,3.28
2019-02-04T05:55:48.605Z,3.15
2019-02-04T05:58:18.844Z,3.20
2019-02-04T06:00:51.167Z,3.14
2019-02-04T06:03:21.087Z,3.19
2019-02-04T06:05:51.302Z,3.13
2019-02-04T06:08:21.288Z,3.23
2019-02-04T06:10:51.214Z,3.15
2019-02-04T06:13:21.189Z,3.14
2019-02-04T06:15:51.375Z,3.11
2019-02-04T06:18:21.908Z,3.14
2019-02-04T06:20:52.639Z,3.23
2019-02-04T06:23:22.844Z,3.21
2019-02-04T06:25:53.102Z,3.21
2019-02-04T06:28:23.160Z,3.24
2019-02-04T06:30:54.937Z,2.96
2019-02-04T06:33:24.819Z,3.14
2019-02-04T06:35:55.086Z,3.27
2019-02-04T06:38:25.777Z,3.14
2019-02-04T06:40:55.861Z,3.16
2019-02-04T06:43:25.806Z,3.42
2019-02-04T06:45:56.059Z,3.36
2019-02-04T06:48:25.985Z,3.19
2019-02-04T06:50:56.083Z,3.35
2019-02-04T06:53:26.563Z,3.46
2019-02-04T06:55:56.544Z,3.40
2019-02-04T06:58:27.456Z,3.35
2019-02-04T07:00:57.422Z,3.48
2019-02-04T07:03:27.362Z,3.49
2019-02-04T07:05:57.277Z,3.49
2019-02-04T07:08:27.217Z,3.41
2019-02-04T07:10:57.233Z,3.61
2019-02-04T07:13:27.754Z,3.52
2019-02-04T07:15:58.121Z,3.62
2019-02-04T07:18:27.994Z,3.61
2019-02-04T07:20:57.973Z,3.54
2019-02-04T07:23:28.160Z,3.49
2019-02-04T07:25:58.840Z,3.45
2019-02-04T07:28:28.747Z,3.73
2019-02-04T07:30:58.801Z,3.54
2019-02-04T07:33:28.804Z,3.67
2019-02-04T07:35:59.029Z,3.54
2019-02-04T07:38:29.220Z,3.73
2019-02-04T07:40:59.678Z,3.78
2019-02-04T07:43:29.609Z,3.68
2019-02-04T07:45:59.520Z,3.71
2019-02-04T07:48:29.535Z,3.69
2019-02-04T07:50:59.733Z,3.84
2019-02-04T07:53:29.720Z,3.92
2019-02-04T07:55:59.635Z,3.92
2019-02-04T07:58:29.829Z,3.88
2019-02-04T08:00:59.790Z,3.93
2019-02-04T08:03:30.056Z,3.94
2019-02-04T08:06:00.418Z,3.92
2019-02-04T08:08:32.025Z,3.87
2019-02-04T08:11:02.608Z,3.98
2019-02-04T08:13:32.870Z,3.98
2019-02-04T08:16:03.031Z,4.10
2019-02-04T08:18:32.985Z,4.10
2019-02-04T08:21:03.278Z,4.22
2019-02-04T08:23:33.231Z,4.26
2019-02-04T08:26:03.576Z,4.28
2019-02-04T08:28:33.741Z,4.27
2019-02-04T08:31:04.169Z,4.11
2019-02-04T08:33:34.345Z,4.25
2019-02-04T08:36:04.308Z,4.26
2019-02-04T08:38:34.448Z,4.37
2019-02-04T08:41:04.783Z,4.21
2019-02-04T08:43:34.922Z,4.34
2019-02-04T08:46:04.820Z,4.36
2019-02-04T08:48:34.712Z,4.43
2019-02-04T08:51:05.133Z,4.41
2019-02-04T08:53:35.079Z,4.55
2019-02-04T08:56:05.316Z,4.50
2019-02-04T08:58:35.293Z,4.58
2019-02-04T09:01:06.137Z,4.59
2019-02-04T09:03:36.068Z,4.56
2019-02-04T09:06:06.680Z,4.70
2019-02-04T09:08:36.646Z,4.66
2019-02-04T09:11:07.050Z,4.68
2019-02-04T09:13:37.010Z,4.56
2019-02-04T09:16:07.384Z,4.78
2019-02-04T09:18:44.950Z,4.34
2019-02-04T09:21:09.580Z,4.73
2019-02-04T09:23:39.879Z,4.74
2019-02-04T09:26:10.080Z,3.79
2019-02-04T09:28:40.125Z,3.31
2019-02-04T09:31:10.168Z,3.30
2019-02-04T09:33:40.170Z,4.50
2019-02-04T09:36:10.442Z,3.77
2019-02-04T09:38:40.644Z,4.95
2019-02-04T09:41:10.792Z,5.21
2019-02-04T09:43:42.733Z,4.71
2019-02-04T09:46:12.657Z,5.22
2019-02-04T09:48:42.639Z,4.88
2019-02-04T09:51:12.576Z,5.26
2019-02-04T09:53:42.614Z,5.38
2019-02-04T09:56:12.524Z,5.09
2019-02-04T09:58:42.769Z,5.59
2019-02-04T10:01:13.865Z,5.38
2019-02-04T10:03:43.776Z,5.45
2019-02-04T10:06:14.413Z,5.14
2019-02-04T10:08:44.800Z,5.63
2019-02-04T10:11:15.227Z,5.78
2019-02-04T10:13:46.115Z,5.84
2019-02-04T10:16:16.413Z,5.62
2019-02-04T10:18:46.429Z,5.90
2019-02-04T10:21:16.427Z,5.87
2019-02-04T10:23:46.520Z,5.93
2019-02-04T10:26:16.713Z,5.93
2019-02-04T10:28:46.769Z,5.35
2019-02-04T10:31:17.266Z,6.05
2019-02-04T10:33:47.493Z,5.39
2019-02-04T10:36:17.449Z,5.97
2019-02-04T10:38:47.367Z,6.21
2019-02-04T10:41:17.660Z,6.29
2019-02-04T10:43:47.704Z,5.98
2019-02-04T10:46:17.723Z,5.99
2019-02-04T10:48:48.842Z,6.04
2019-02-04T10:51:19.001Z,6.35
2019-02-04T10:53:48.917Z,6.27
2019-02-04T10:56:18.855Z,6.43
2019-02-04T10:58:48.872Z,6.32
2019-02-04T11:01:19.200Z,6.42
2019-02-04T11:03:49.190Z,6.45
2019-02-04T11:06:19.341Z,6.34
2019-02-04T11:08:49.714Z,6.56
2019-02-04T11:11:19.910Z,6.32
2019-02-04T11:13:49.840Z,6.59
2019-02-04T11:16:19.905Z,6.19
2019-02-04T11:18:50.520Z,6.78
2019-02-04T11:21:20.501Z,6.78
2019-02-04T11:23:50.763Z,6.76
2019-02-04T11:26:20.681Z,6.97
2019-02-04T11:28:50.877Z,6.47
2019-02-04T11:31:20.836Z,6.83
2019-02-04T11:33:50.790Z,6.70
2019-02-04T11:36:21.044Z,6.94
2019-02-04T11:38:51.010Z,6.79
2019-02-04T11:41:21.038Z,7.08
2019-02-04T11:43:51.079Z,7.10
2019-02-04T11:46:21.765Z,6.83
2019-02-04T11:48:56.241Z,7.10
2019-02-04T11:51:26.392Z,6.77
2019-02-04T11:53:56.282Z,6.80
2019-02-04T11:56:26.170Z,6.70
2019-02-04T11:58:56.729Z,7.24
2019-02-04T12:01:27.192Z,7.15
2019-02-04T12:03:57.326Z,7.36
2019-02-04T12:06:27.488Z,6.76
2019-02-04T12:08:57.378Z,7.12
2019-02-04T12:11:27.517Z,7.59
2019-02-04T12:13:57.791Z,7.09
2019-02-04T12:16:28.366Z,7.40
2019-02-04T12:18:58.311Z,7.23
2019-02-04T12:21:28.338Z,7.43
2019-02-04T12:23:58.419Z,7.41
2019-02-04T12:26:28.647Z,6.71
2019-02-04T12:28:58.569Z,7.20
2019-02-04T12:31:28.811Z,7.22
2019-02-04T12:33:58.728Z,7.26
2019-02-04T12:36:28.705Z,7.22
2019-02-04T12:38:58.939Z,6.46
2019-02-04T12:41:29.043Z,6.61
2019-02-04T12:43:59.356Z,7.22
2019-02-04T12:46:29.717Z,6.73
2019-02-04T12:48:59.651Z,7.36
2019-02-04T12:51:33.819Z,7.09
2019-02-04T12:54:01.903Z,7.05
2019-02-04T12:56:32.643Z,7.43
2019-02-04T12:59:02.554Z,7.48
2019-02-04T13:01:32.463Z,7.19
2019-02-04T13:04:02.416Z,7.52
2019-02-04T13:06:32.343Z,7.29
2019-02-04T13:09:02.258Z,7.54
2019-02-04T13:11:32.495Z,7.25
2019-02-04T13:14:02.622Z,7.20
2019-02-04T13:16:32.809Z,6.80
2019-02-04T13:19:02.792Z,7.48
2019-02-04T13:21:32.832Z,7.23
2019-02-04T13:24:02.906Z,7.59
2019-02-04T13:26:32.842Z,7.82
2019-02-04T13:29:02.875Z,7.56
2019-02-04T13:31:32.765Z,7.80
2019-02-04T13:34:02.908Z,7.49
2019-02-04T13:36:32.817Z,7.82
2019-02-04T13:39:03.099Z,7.85
2019-02-04T13:41:33.281Z,7.90
2019-02-04T13:44:03.436Z,7.62
2019-02-04T13:46:33.402Z,7.82
2019-02-04T13:49:03.384Z,6.62
2019-02-04T13:51:33.568Z,7.70
2019-02-04T13:54:03.554Z,7.85
2019-02-04T13:56:33.639Z,7.87
2019-02-04T13:59:03.765Z,7.86
2019-02-04T14:01:33.682Z,7.77
2019-02-04T14:04:03.726Z,7.62
2019-02-04T14:06:34.734Z,7.82
2019-02-04T14:09:11.757Z,7.79
2019-02-04T14:11:41.897Z,7.88
2019-02-04T14:14:11.854Z,7.84
2019-02-04T14:16:41.872Z,7.84
2019-02-04T14:19:11.804Z,7.84
2019-02-04T14:21:41.781Z,7.80
2019-02-04T14:24:11.923Z,7.87
2019-02-04T14:26:41.881Z,7.85
2019-02-04T14:29:11.930Z,7.83
2019-02-04T14:31:42.308Z,7.79
2019-02-04T14:34:12.280Z,7.81
2019-02-04T14:36:42.289Z,7.85
2019-02-04T14:39:16.608Z,7.76
2019-02-04T14:41:46.722Z,7.85
2019-02-04T14:44:44.108Z,7.69
2019-02-04T14:47:39.427Z,7.69
2019-02-04T14:50:50.850Z,7.67
2019-02-04T14:54:03.576Z,7.67
2019-02-04T14:57:23.818Z,7.51
2019-02-04T15:00:42.191Z,7.54
2019-02-04T15:04:03.443Z,7.15
2019-02-04T15:07:24.670Z,7.17
2019-02-04T15:10:30.702Z,7.22
2019-02-04T15:13:46.048Z,7.48
2019-02-04T15:16:31.106Z,7.21
2019-02-04T15:19:44.431Z,7.42
2019-02-04T15:23:00.176Z,7.26
2019-02-04T15:26:10.204Z,7.17
2019-02-04T15:28:59.227Z,7.38
2019-02-04T15:32:01.101Z,7.31
2019-02-04T15:35:04.847Z,7.35
2019-02-04T15:38:11.514Z,7.28
2019-02-04T15:41:20.535Z,7.22
2019-02-04T15:44:24.053Z,7.12
2019-02-04T15:47:23.907Z,7.04
2019-02-04T15:51:05.497Z,6.98
2019-02-04T15:53:36.726Z,6.95
2019-02-04T15:56:09.939Z,6.96
2019-02-04T15:58:40.493Z,6.82
2019-02-04T16:01:10.408Z,6.75
2019-02-04T16:03:40.308Z,6.79
2019-02-04T16:06:10.311Z,6.74
2019-02-04T16:08:40.218Z,6.64
2019-02-04T16:11:10.664Z,6.75
2019-02-04T16:13:41.028Z,6.66
2019-02-04T16:16:11.679Z,6.70
2019-02-04T16:18:41.614Z,6.70
2019-02-04T16:21:11.602Z,6.66
2019-02-04T16:23:41.639Z,6.57
2019-02-04T16:26:15.167Z,6.42
2019-02-04T16:28:44.220Z,6.38
2019-02-04T16:31:14.224Z,6.45
2019-02-04T16:33:44.651Z,6.42
2019-02-04T16:36:14.755Z,6.35
2019-02-04T16:38:44.643Z,6.22
2019-02-04T16:41:14.521Z,6.23
2019-02-04T16:43:45.123Z,6.15
2019-02-04T16:46:15.190Z,6.25
2019-02-04T16:48:45.075Z,6.12
2019-02-04T16:51:15.026Z,6.00
2019-02-04T16:53:45.058Z,6.17
2019-02-04T16:56:14.922Z,6.24
2019-02-04T16:58:44.804Z,6.29
2019-02-04T17:01:15.030Z,6.30
2019-02-04T17:03:45.166Z,6.14
2019-02-04T17:06:15.708Z,6.16
2019-02-04T17:08:45.795Z,6.17
2019-02-04T17:11:15.955Z,6.12
2019-02-04T17:13:45.985Z,6.16
2019-02-04T17:16:15.880Z,5.96
2019-02-04T17:18:46.006Z,6.11
2019-02-04T17:21:16.031Z,6.02
2019-02-04T17:23:46.003Z,6.00
2019-02-04T17:26:15.996Z,6.05
2019-02-04T17:28:46.214Z,5.99
2019-02-04T17:31:16.423Z,5.99
2019-02-04T17:33:46.798Z,6.03
2019-02-04T17:36:16.955Z,5.91
2019-02-04T17:38:46.887Z,6.02
2019-02-04T17:41:16.921Z,5.99
2019-02-04T17:43:47.262Z,5.85
2019-02-04T17:46:17.231Z,5.94
2019-02-04T17:48:47.132Z,5.90
2019-02-04T17:51:17.029Z,5.80
2019-02-04T17:53:47.116Z,5.86
2019-02-04T17:56:17.370Z,5.87
2019-02-04T17:58:47.264Z,5.93
2019-02-04T18:01:17.235Z,5.90
2019-02-04T18:03:47.362Z,5.84
2019-02-04T18:06:17.263Z,5.84
2019-02-04T18:08:47.876Z,5.78
2019-02-04T18:11:18.021Z,5.92
2019-02-04T18:13:47.979Z,5.83
2019-02-04T18:16:18.266Z,5.84
2019-02-04T18:18:48.652Z,5.80
2019-02-04T18:21:18.567Z,5.84
2019-02-04T18:23:48.458Z,5.79
2019-02-04T18:26:18.356Z,5.82
2019-02-04T18:28:48.785Z,5.76
2019-02-04T18:31:19.001Z,5.88
2019-02-04T18:33:48.888Z,5.80
2019-02-04T18:36:18.798Z,5.65
2019-02-04T18:38:48.780Z,5.83
2019-02-04T18:41:18.737Z,5.79
2019-02-04T18:43:48.633Z,5.07
2019-02-04T18:46:18.672Z,5.75
2019-02-04T18:48:48.950Z,5.73
2019-02-04T18:51:19.080Z,5.74
2019-02-04T18:53:57.461Z,5.76
2019-02-04T18:56:21.493Z,5.88
2019-02-04T18:58:51.578Z,5.91
2019-02-04T19:01:21.755Z,5.82
2019-02-04T19:03:51.658Z,5.74
2019-02-04T19:06:21.836Z,5.84
2019-02-04T19:08:51.927Z,5.79
2019-02-04T19:11:21.796Z,5.87
2019-02-04T19:13:51.915Z,5.87
2019-02-04T19:16:21.849Z,5.79
2019-02-04T19:18:52.518Z,5.85
2019-02-04T19:21:23.049Z,5.88
2019-02-04T19:23:53.059Z,5.86
2019-02-04T19:26:23.494Z,5.95
2019-02-04T19:28:53.413Z,5.89
2019-02-04T19:31:30.142Z,5.89
2019-02-04T19:34:00.940Z,5.81
2019-02-04T19:36:31.334Z,5.79
2019-02-04T19:39:01.316Z,5.73
2019-02-04T19:41:31.515Z,5.71
2019-02-04T19:44:01.470Z,5.55
2019-02-04T19:46:31.587Z,5.64
2019-02-04T19:49:01.868Z,5.62
2019-02-04T19:51:31.864Z,5.73
2019-02-04T19:54:02.099Z,5.77
2019-02-04T19:56:32.245Z,5.67
2019-02-04T19:59:02.189Z,5.60
2019-02-04T20:01:32.572Z,5.69
2019-02-04T20:04:02.836Z,5.72
2019-02-04T20:06:32.879Z,5.65
2019-02-04T20:09:05.296Z,5.56
2019-02-04T20:11:35.522Z,5.56
2019-02-04T20:14:06.132Z,5.59
2019-02-04T20:16:39.298Z,5.69
2019-02-04T20:19:08.306Z,5.60
2019-02-04T20:21:38.441Z,5.60
2019-02-04T20:24:08.477Z,5.62
2019-02-04T20:26:38.393Z,5.52
2019-02-04T20:29:08.412Z,5.51
2019-02-04T20:31:38.329Z,5.58
2019-02-04T20:34:08.358Z,5.51
2019-02-04T20:36:38.630Z,5.61
2019-02-04T20:39:10.985Z,5.49
2019-02-04T20:41:40.933Z,5.58
2019-02-04T20:44:10.882Z,5.58
2019-02-04T20:46:41.188Z,5.51
2019-02-04T20:49:11.379Z,5.51
2019-02-04T20:51:41.541Z,5.51
2019-02-04T20:54:19.479Z,5.56
2019-02-04T20:56:44.333Z,5.58
2019-02-04T20:59:14.908Z,5.50
2019-02-04T21:01:45.283Z,5.22
2019-02-04T21:04:15.748Z,5.41
2019-02-04T21:06:55.851Z,5.46
2019-02-04T21:09:18.025Z,5.46
2019-02-04T21:11:49.403Z,5.48
2019-02-04T21:14:19.697Z,5.50
2019-02-04T21:16:49.631Z,5.39
2019-02-04T21:19:19.774Z,5.36
2019-02-04T21:21:50.303Z,5.42
2019-02-04T21:24:21.619Z,5.43
2019-02-04T21:26:51.506Z,5.38
2019-02-04T21:29:21.589Z,5.44
2019-02-04T21:31:51.835Z,5.46
2019-02-04T21:34:22.990Z,5.29
2019-02-04T21:36:52.974Z,5.44
2019-02-04T21:39:23.864Z,5.40
2019-02-04T21:41:54.220Z,5.48
2019-02-04T21:44:25.112Z,5.10
2019-02-04T21:46:56.023Z,5.47
2019-02-04T21:49:26.221Z,5.57
2019-02-04T21:51:56.679Z,5.42
2019-02-04T21:54:26.895Z,5.22
2019-02-04T21:56:57.705Z,5.35
2019-02-04T21:59:28.330Z,5.42
2019-02-04T22:01:59.665Z,5.36
2019-02-04T22:04:29.610Z,5.25
2019-02-04T22:06:59.978Z,5.26
2019-02-04T22:09:30.139Z,5.27
2019-02-04T22:12:00.057Z,5.51
2019-02-04T22:14:30.001Z,5.52
2019-02-04T22:17:00.455Z,5.48
2019-02-04T22:19:31.399Z,5.36
2019-02-04T22:22:01.427Z,5.45
2019-02-04T22:24:31.535Z,5.47
2019-02-04T22:27:01.884Z,5.59
2019-02-04T22:29:33.316Z,5.55
2019-02-04T22:32:07.776Z,5.58
2019-02-04T22:34:41.159Z,5.53
2019-02-04T22:37:11.365Z,5.43
2019-02-04T22:39:45.227Z,5.47
2019-02-04T22:42:18.210Z,5.44
2019-02-04T22:44:59.068Z,5.46
2019-02-04T22:47:29.352Z,5.40
2019-02-04T22:50:02.137Z,5.37
2019-02-04T22:52:32.377Z,5.48
2019-02-04T22:55:04.460Z,5.50
2019-02-04T22:57:37.997Z,5.41
2019-02-04T23:00:35.037Z,5.41
2019-02-04T23:03:05.116Z,5.53
2019-02-04T23:05:35.325Z,5.37
2019-02-04T23:08:07.417Z,5.47
2019-02-04T23:10:37.710Z,5.47
2019-02-04T23:13:08.000Z,5.48
2019-02-04T23:15:38.033Z,5.57
2019-02-04T23:18:08.445Z,5.35
2019-02-04T23:20:38.625Z,5.34
2019-02-04T23:23:08.753Z,4.96
2019-02-04T23:25:43.582Z,5.42
2019-02-04T23:28:10.797Z,5.33
2019-02-04T23:30:40.919Z,4.93
2019-02-04T23:33:13.977Z,5.09
2019-02-04T23:35:43.996Z,5.08
2019-02-04T23:38:14.474Z,5.32
2019-02-04T23:40:44.402Z,5.17
2019-02-04T23:43:14.353Z,5.27
2019-02-04T23:45:45.072Z,5.17
2019-02-04T23:48:15.048Z,5.25
2019-02-04T23:50:45.199Z,5.22
2019-02-04T23:53:15.115Z,5.05
2019-02-04T23:55:54.436Z,5.26
2019-02-04T23:58:17.240Z,5.30
